createdAt,value
2017-10-17T00:01:39.143Z,11.90
2017-10-17T00:04:07.466Z,11.80
2017-10-17T00:06:35.005Z,11.80
2017-10-17T00:09:02.561Z,11.80
2017-10-17T00:11:30.095Z,11.80
2017-10-17T00:13:58.431Z,11.70
2017-10-17T00:16:25.967Z,11.70
2017-10-17T00:18:53.530Z,11.80
2017-10-17T00:21:21.076Z,11.80
2017-10-17T00:23:48.629Z,11.80
2017-10-17T00:26:16.924Z,11.80
2017-10-17T00:28:44.484Z,11.70
2017-10-17T00:31:12.023Z,11.70
2017-10-17T00:33:40.350Z,11.70
2017-10-17T00:36:08.631Z,11.70
2017-10-17T00:38:43.731Z,11.60
2017-10-17T00:41:11.262Z,11.60
2017-10-17T00:43:39.588Z,11.50
2017-10-17T00:46:09.977Z,11.50
2017-10-17T00:48:38.298Z,11.50
2017-10-17T00:51:07.555Z,11.50
2017-10-17T00:53:35.895Z,11.50
2017-10-17T00:56:03.432Z,11.50
2017-10-17T00:58:30.985Z,11.50
2017-10-17T01:00:58.514Z,11.50
2017-10-17T01:03:26.063Z,11.50
2017-10-17T01:05:54.363Z,11.40
2017-10-17T01:08:21.914Z,11.40
2017-10-17T01:10:49.446Z,11.30
2017-10-17T01:13:17.855Z,11.30
2017-10-17T01:15:45.384Z,11.40
2017-10-17T01:18:12.924Z,11.30
2017-10-17T01:20:55.356Z,11.30
2017-10-17T01:23:33.619Z,11.20
2017-10-17T01:26:01.158Z,11.20
2017-10-17T01:28:31.477Z,11.20
2017-10-17T01:30:59.035Z,11.10
2017-10-17T01:33:26.586Z,11.10
2017-10-17T01:35:54.891Z,11.20
2017-10-17T01:41:20.451Z,11.10
2017-10-17T01:43:50.835Z,11.10
2017-10-17T01:46:19.266Z,11.10
2017-10-17T01:48:47.759Z,11.00
2017-10-17T01:51:18.131Z,11.00
2017-10-17T01:53:46.680Z,11.00
2017-10-17T01:56:14.983Z,11.10
2017-10-17T01:58:44.166Z,11.10
2017-10-17T02:01:13.371Z,11.20
2017-10-17T02:03:40.932Z,11.10
2017-10-17T02:06:09.236Z,11.10
2017-10-17T02:08:36.776Z,11.10
2017-10-17T02:11:04.336Z,11.10
2017-10-17T02:13:31.873Z,11.10
2017-10-17T02:16:00.199Z,11.20
2017-10-17T02:18:27.734Z,11.20
2017-10-17T02:20:57.823Z,11.10
2017-10-17T02:23:27.218Z,11.10
2017-10-17T02:25:57.640Z,11.20
2017-10-17T02:28:33.746Z,11.10
2017-10-17T02:31:02.156Z,11.00
2017-10-17T02:33:36.419Z,11.00
2017-10-17T02:36:04.761Z,11.00
2017-10-17T02:38:32.320Z,10.90
2017-10-17T02:40:59.881Z,10.90
2017-10-17T02:43:27.428Z,10.90
2017-10-17T02:45:54.984Z,10.80
2017-10-17T02:51:31.474Z,10.80
2017-10-17T02:53:59.013Z,10.80
2017-10-17T02:56:26.574Z,10.80
2017-10-17T02:58:54.111Z,10.90
2017-10-17T03:01:29.883Z,11.10
2017-10-17T03:03:57.419Z,11.10
2017-10-17T03:06:25.746Z,11.10
2017-10-17T03:08:53.279Z,11.10
2017-10-17T03:11:20.838Z,11.10
2017-10-17T03:13:49.995Z,11.00
2017-10-17T03:16:17.647Z,11.00
2017-10-17T03:18:45.191Z,10.90
2017-10-17T03:21:14.667Z,10.90
2017-10-17T03:23:56.694Z,10.80
2017-10-17T03:26:24.261Z,10.70
2017-10-17T03:28:51.803Z,10.70
2017-10-17T03:31:20.162Z,10.60
2017-10-17T03:33:47.700Z,10.60
2017-10-17T03:36:20.778Z,10.60
2017-10-17T03:38:51.751Z,10.50
2017-10-17T03:41:22.259Z,10.50
2017-10-17T03:43:53.391Z,10.50
2017-10-17T03:46:26.751Z,10.50
2017-10-17T03:48:54.295Z,10.40
2017-10-17T03:51:23.272Z,10.40
2017-10-17T03:53:50.803Z,10.30
2017-10-17T03:56:24.603Z,10.40
2017-10-17T03:58:52.144Z,10.40
2017-10-17T04:01:35.392Z,10.50
2017-10-17T04:04:10.636Z,10.40
2017-10-17T04:10:01.229Z,10.60
2017-10-17T04:12:28.782Z,10.70
2017-10-17T04:14:56.323Z,10.70
2017-10-17T04:17:23.887Z,10.70
2017-10-17T04:19:52.351Z,10.60
2017-10-17T04:22:24.307Z,10.60
2017-10-17T04:24:59.816Z,10.60
2017-10-17T04:27:36.012Z,10.50
2017-10-17T04:33:13.216Z,10.40
2017-10-17T04:35:45.240Z,10.30
2017-10-17T04:38:12.806Z,10.20
2017-10-17T04:40:44.179Z,10.30
2017-10-17T04:46:23.854Z,10.20
2017-10-17T04:49:08.223Z,10.20
2017-10-17T04:51:36.694Z,10.10
2017-10-17T04:54:10.072Z,10.10
2017-10-17T04:56:38.375Z,10.00
2017-10-17T05:02:37.528Z,9.90
2017-10-17T05:05:22.498Z,10.10
2017-10-17T05:08:04.948Z,10.10
2017-10-17T05:13:34.923Z,9.90
2017-10-17T05:16:14.207Z,9.90
2017-10-17T05:19:01.516Z,9.80
2017-10-17T05:21:29.050Z,9.60
2017-10-17T05:24:06.950Z,9.60
2017-10-17T05:26:34.527Z,9.60
2017-10-17T05:29:06.987Z,9.60
2017-10-17T05:31:34.963Z,9.60
2017-10-17T05:34:08.096Z,9.80
2017-10-17T05:39:33.856Z,9.80
2017-10-17T05:42:01.430Z,9.80
2017-10-17T05:44:37.715Z,9.80
2017-10-17T05:47:07.984Z,9.80
2017-10-17T05:49:49.188Z,9.80
2017-10-17T05:52:16.723Z,9.70
2017-10-17T05:54:45.053Z,9.70
2017-10-17T05:57:12.583Z,9.70
2017-10-17T05:59:40.135Z,9.70
2017-10-17T06:02:07.672Z,9.70
2017-10-17T06:04:35.995Z,9.80
2017-10-17T06:07:03.552Z,9.80
2017-10-17T06:09:31.136Z,9.80
2017-10-17T06:11:58.682Z,9.80
2017-10-17T06:14:26.219Z,9.80
2017-10-17T06:16:53.776Z,9.80
2017-10-17T06:19:21.313Z,9.80
2017-10-17T06:21:49.643Z,9.80
2017-10-17T06:24:17.178Z,9.70
2017-10-17T06:26:44.748Z,9.80
2017-10-17T06:29:12.283Z,9.80
2017-10-17T06:31:40.603Z,9.70
2017-10-17T06:34:08.136Z,9.70
2017-10-17T06:36:35.707Z,9.70
2017-10-17T06:39:03.230Z,9.80
2017-10-17T06:41:31.551Z,9.80
2017-10-17T06:43:59.079Z,9.80
2017-10-17T06:46:26.634Z,9.90
2017-10-17T06:48:54.938Z,10.10
2017-10-17T06:51:22.495Z,10.00
2017-10-17T06:53:50.033Z,10.10
2017-10-17T06:56:18.360Z,10.20
2017-10-17T06:58:45.895Z,10.20
2017-10-17T07:01:13.460Z,10.30
2017-10-17T07:03:41.010Z,10.40
2017-10-17T07:06:08.575Z,10.50
2017-10-17T07:08:36.126Z,10.40
2017-10-17T07:11:03.686Z,10.60
2017-10-17T07:13:31.218Z,10.70
2017-10-17T07:15:59.611Z,10.80
2017-10-17T07:18:27.915Z,10.90
2017-10-17T07:20:55.469Z,10.80
2017-10-17T07:23:23.007Z,10.80
2017-10-17T07:25:51.355Z,10.90
2017-10-17T07:28:18.888Z,10.90
2017-10-17T07:30:46.451Z,10.90
2017-10-17T07:33:13.986Z,11.00
2017-10-17T07:35:41.515Z,11.20
2017-10-17T07:38:09.839Z,11.20
2017-10-17T07:40:37.368Z,11.20
2017-10-17T07:43:04.932Z,11.20
2017-10-17T07:45:32.467Z,11.30
2017-10-17T07:48:00.800Z,11.30
2017-10-17T07:50:28.335Z,11.30
2017-10-17T07:52:55.907Z,11.40
2017-10-17T07:55:23.435Z,11.40
2017-10-17T07:57:51.750Z,11.60
2017-10-17T08:00:19.287Z,11.50
2017-10-17T08:02:46.843Z,11.80
2017-10-17T08:05:14.375Z,11.90
2017-10-17T08:07:41.931Z,11.90
2017-10-17T08:10:09.878Z,12.00
2017-10-17T08:12:37.448Z,12.20
2017-10-17T08:15:04.985Z,12.30
2017-10-17T08:17:32.540Z,12.40
2017-10-17T08:20:00.076Z,12.50
2017-10-17T08:22:27.630Z,12.60
2017-10-17T08:24:55.163Z,12.70
2017-10-17T08:27:23.488Z,12.80
2017-10-17T08:29:51.018Z,12.70
2017-10-17T08:32:19.344Z,13.00
2017-10-17T08:34:46.891Z,13.00
2017-10-17T08:37:14.454Z,13.10
2017-10-17T08:39:42.006Z,13.20
2017-10-17T08:42:09.567Z,13.30
2017-10-17T08:44:37.110Z,13.40
2017-10-17T08:47:04.660Z,13.50
2017-10-17T08:49:32.199Z,13.60
2017-10-17T08:52:00.534Z,13.90
2017-10-17T08:54:28.065Z,13.90
2017-10-17T08:56:55.629Z,14.00
2017-10-17T08:59:23.163Z,14.10
2017-10-17T09:01:51.486Z,14.40
2017-10-17T09:04:19.020Z,14.40
2017-10-17T09:06:46.579Z,14.50
2017-10-17T09:09:14.113Z,14.60
2017-10-17T09:11:42.442Z,14.90
2017-10-17T09:14:09.975Z,14.80
2017-10-17T09:16:37.539Z,15.00
2017-10-17T09:19:05.071Z,15.10
2017-10-17T09:21:33.399Z,15.30
2017-10-17T09:24:00.931Z,15.30
2017-10-17T09:26:28.490Z,15.50
2017-10-17T09:28:56.018Z,15.60
2017-10-17T09:31:23.583Z,15.70
2017-10-17T09:33:51.125Z,15.70
2017-10-17T09:36:18.691Z,15.70
2017-10-17T09:38:46.226Z,15.90
2017-10-17T09:41:13.750Z,16.00
2017-10-17T09:43:41.301Z,16.10
2017-10-17T09:46:09.605Z,16.20
2017-10-17T09:48:37.165Z,16.20
2017-10-17T09:51:04.695Z,16.20
2017-10-17T09:53:33.016Z,16.50
2017-10-17T09:56:00.550Z,16.50
2017-10-17T09:58:28.098Z,16.50
2017-10-17T10:00:55.631Z,16.70
2017-10-17T10:03:23.195Z,16.60
2017-10-17T10:05:51.494Z,16.70
2017-10-17T10:08:19.053Z,16.70
2017-10-17T10:13:21.275Z,17.10
2017-10-17T10:15:48.799Z,17.10
2017-10-17T10:18:17.115Z,17.00
2017-10-17T10:20:44.638Z,17.00
2017-10-17T10:23:12.195Z,17.20
2017-10-17T10:25:40.488Z,17.50
2017-10-17T10:28:08.044Z,17.50
2017-10-17T10:30:35.566Z,17.80
2017-10-17T10:33:03.132Z,17.80
2017-10-17T10:35:31.430Z,17.80
2017-10-17T10:37:59.752Z,17.80
2017-10-17T10:40:27.278Z,17.80
2017-10-17T10:42:54.830Z,17.90
2017-10-17T10:45:22.367Z,18.10
2017-10-17T10:47:50.696Z,18.10
2017-10-17T10:50:18.236Z,18.10
2017-10-17T10:52:45.787Z,18.10
2017-10-17T10:55:13.314Z,18.30
2017-10-17T10:57:40.867Z,18.40
2017-10-17T11:00:08.399Z,18.40
2017-10-17T11:02:35.954Z,18.50
2017-10-17T11:05:03.490Z,18.60
2017-10-17T11:07:31.054Z,18.30
2017-10-17T11:09:58.584Z,18.60
2017-10-17T11:12:26.908Z,18.70
2017-10-17T11:14:54.434Z,18.70
2017-10-17T11:17:22.758Z,18.80
2017-10-17T11:19:50.286Z,18.80
2017-10-17T11:22:17.835Z,18.90
2017-10-17T11:24:45.368Z,19.10
2017-10-17T11:27:12.921Z,19.10
2017-10-17T11:29:40.450Z,19.10
2017-10-17T11:32:08.004Z,19.20
2017-10-17T11:34:35.533Z,19.30
2017-10-17T11:37:03.080Z,19.40
2017-10-17T11:39:31.378Z,19.40
2017-10-17T11:42:10.781Z,19.40
2017-10-17T11:44:38.312Z,19.40
2017-10-17T11:47:05.869Z,19.40
2017-10-17T11:49:33.399Z,19.50
2017-10-17T11:52:00.960Z,19.50
2017-10-17T11:54:28.486Z,19.50
2017-10-17T11:56:56.780Z,19.60
2017-10-17T11:59:24.339Z,19.60
2017-10-17T12:01:51.876Z,19.60
2017-10-17T12:04:20.202Z,19.60
2017-10-17T12:06:47.731Z,19.60
2017-10-17T12:09:16.044Z,19.80
2017-10-17T12:11:43.575Z,19.80
2017-10-17T12:14:11.135Z,19.90
2017-10-17T12:16:38.659Z,20.10
2017-10-17T12:19:06.215Z,20.00
2017-10-17T12:21:33.748Z,20.10
2017-10-17T12:24:01.306Z,20.20
2017-10-17T12:26:28.839Z,20.10
2017-10-17T12:28:56.386Z,20.30
2017-10-17T12:31:24.692Z,20.30
2017-10-17T12:33:52.246Z,20.20
2017-10-17T12:36:19.777Z,20.30
2017-10-17T12:38:48.096Z,20.30
2017-10-17T12:41:15.623Z,20.30
2017-10-17T12:43:43.945Z,20.30
2017-10-17T12:46:11.476Z,20.30
2017-10-17T12:48:39.031Z,20.40
2017-10-17T12:51:06.563Z,20.50
2017-10-17T12:53:34.886Z,20.60
2017-10-17T12:56:02.412Z,20.60
2017-10-17T12:58:30.732Z,20.50
2017-10-17T13:00:58.263Z,20.50
2017-10-17T13:03:25.812Z,20.50
2017-10-17T13:05:54.104Z,20.50
2017-10-17T13:08:21.663Z,20.50
2017-10-17T13:10:49.213Z,20.60
2017-10-17T13:13:16.761Z,20.50
2017-10-17T13:15:45.055Z,20.30
2017-10-17T13:18:12.611Z,20.30
2017-10-17T13:20:40.143Z,20.30
2017-10-17T13:23:07.704Z,20.40
2017-10-17T13:25:35.239Z,20.40
2017-10-17T13:28:02.788Z,20.50
2017-10-17T13:30:30.314Z,20.50
2017-10-17T13:32:57.864Z,20.50
2017-10-17T13:35:25.399Z,20.40
2017-10-17T13:37:52.956Z,20.40
2017-10-17T13:40:20.487Z,20.40
2017-10-17T13:42:48.039Z,20.40
2017-10-17T13:45:15.563Z,20.40
2017-10-17T13:47:43.118Z,20.50
2017-10-17T13:50:11.415Z,20.70
2017-10-17T13:52:38.966Z,20.70
2017-10-17T13:55:06.491Z,20.60
2017-10-17T13:57:34.043Z,20.60
2017-10-17T14:00:01.578Z,20.60
2017-10-17T14:02:29.132Z,20.50
2017-10-17T14:04:56.658Z,20.50
2017-10-17T14:07:24.188Z,20.40
2017-10-17T14:09:51.748Z,20.40
2017-10-17T14:12:19.275Z,20.30
2017-10-17T14:14:46.832Z,20.30
2017-10-17T14:17:14.362Z,20.30
2017-10-17T14:19:41.923Z,20.40
2017-10-17T14:22:09.446Z,20.40
2017-10-17T14:24:37.004Z,20.40
2017-10-17T14:27:04.547Z,20.50
2017-10-17T14:29:32.099Z,20.50
2017-10-17T14:31:59.623Z,20.70
2017-10-17T14:34:27.180Z,20.60
2017-10-17T14:36:54.710Z,20.60
2017-10-17T14:39:23.028Z,20.60
2017-10-17T14:41:50.555Z,20.60
2017-10-17T14:44:18.869Z,20.50
2017-10-17T14:46:46.399Z,20.50
2017-10-17T14:49:14.719Z,20.40
2017-10-17T14:51:42.246Z,20.40
2017-10-17T14:54:09.799Z,20.30
2017-10-17T14:56:38.091Z,20.20
2017-10-17T14:59:05.647Z,20.20
2017-10-17T15:01:33.180Z,20.10
2017-10-17T15:04:01.493Z,19.80
2017-10-17T15:06:29.024Z,19.80
2017-10-17T15:08:57.345Z,19.80
2017-10-17T15:11:24.883Z,19.70
2017-10-17T15:13:52.436Z,19.70
2017-10-17T15:16:19.971Z,19.70
2017-10-17T15:18:48.294Z,19.70
2017-10-17T15:21:15.827Z,19.60
2017-10-17T15:23:43.387Z,19.60
2017-10-17T15:26:11.679Z,19.50
2017-10-17T15:28:39.236Z,19.50
2017-10-17T15:31:06.763Z,19.50
2017-10-17T15:33:35.088Z,19.40
2017-10-17T15:36:02.616Z,19.40
2017-10-17T15:38:30.930Z,19.30
2017-10-17T15:40:58.459Z,19.30
2017-10-17T15:43:26.010Z,19.30
2017-10-17T15:45:54.305Z,19.20
2017-10-17T15:48:21.863Z,19.20
2017-10-17T15:50:49.386Z,19.20
2017-10-17T15:53:16.935Z,19.10
2017-10-17T15:55:44.459Z,19.00
2017-10-17T15:58:12.019Z,18.90
2017-10-17T16:00:39.547Z,18.80
2017-10-17T16:03:07.860Z,18.60
2017-10-17T16:05:35.398Z,18.60
2017-10-17T16:08:02.955Z,18.50
2017-10-17T16:10:30.486Z,18.30
2017-10-17T16:12:58.008Z,18.20
2017-10-17T16:15:25.559Z,18.10
2017-10-17T16:17:53.082Z,18.00
2017-10-17T16:20:21.404Z,17.80
2017-10-17T16:22:48.931Z,17.70
2017-10-17T16:25:16.487Z,17.60
2017-10-17T16:27:44.016Z,17.50
2017-10-17T16:30:11.575Z,17.30
2017-10-17T16:32:39.112Z,17.10
2017-10-17T16:35:06.658Z,17.00
2017-10-17T16:37:34.179Z,16.90
2017-10-17T16:40:02.496Z,16.60
2017-10-17T16:42:30.019Z,16.60
2017-10-17T16:44:57.570Z,16.60
2017-10-17T16:47:25.859Z,16.60
2017-10-17T16:49:53.410Z,16.50
2017-10-17T16:52:21.696Z,16.30
2017-10-17T16:54:49.246Z,16.30
2017-10-17T16:57:17.540Z,16.10
2017-10-17T16:59:45.095Z,16.00
2017-10-17T17:02:12.634Z,16.00
2017-10-17T17:04:40.952Z,15.90
2017-10-17T17:07:08.487Z,15.90
2017-10-17T17:09:36.051Z,15.90
2017-10-17T17:12:03.575Z,15.80
2017-10-17T17:14:31.131Z,15.70
2017-10-17T17:16:58.662Z,15.70
2017-10-17T17:19:26.212Z,15.60
2017-10-17T17:21:53.751Z,15.50
2017-10-17T17:24:21.308Z,15.30
2017-10-17T17:26:48.839Z,15.30
2017-10-17T17:29:17.163Z,15.20
2017-10-17T17:31:44.698Z,15.10
2017-10-17T17:34:12.254Z,15.10
2017-10-17T17:36:39.803Z,15.00
2017-10-17T17:39:08.124Z,15.00
2017-10-17T17:41:35.811Z,15.00
2017-10-17T17:44:03.366Z,15.00
2017-10-17T17:46:30.891Z,15.00
2017-10-17T17:48:58.447Z,14.90
2017-10-17T17:51:25.979Z,14.80
2017-10-17T17:53:54.311Z,14.80
2017-10-17T17:56:21.837Z,14.80
2017-10-17T17:58:49.404Z,14.70
2017-10-17T18:01:16.935Z,14.70
2017-10-17T18:03:45.263Z,14.80
2017-10-17T18:06:12.795Z,14.80
2017-10-17T18:08:40.358Z,14.80
2017-10-17T18:11:07.891Z,14.70
2017-10-17T18:13:36.218Z,14.70
2017-10-17T18:16:03.760Z,14.60
2017-10-17T18:18:31.320Z,14.60
2017-10-17T18:20:58.855Z,14.70
2017-10-17T18:23:27.154Z,14.90
2017-10-17T18:25:54.711Z,14.90
2017-10-17T18:28:22.247Z,14.90
2017-10-17T18:30:50.574Z,14.90
2017-10-17T18:33:18.107Z,14.90
2017-10-17T18:35:45.698Z,14.80
2017-10-17T18:38:13.232Z,14.70
2017-10-17T18:40:40.790Z,14.70
2017-10-17T18:43:09.067Z,14.70
2017-10-17T18:45:36.649Z,14.80
2017-10-17T18:48:04.196Z,14.70
2017-10-17T18:50:31.751Z,14.60
2017-10-17T18:52:59.286Z,14.50
2017-10-17T18:55:27.606Z,14.30
2017-10-17T18:57:55.134Z,14.30
2017-10-17T19:00:22.701Z,14.20
2017-10-17T19:02:50.231Z,14.10
2017-10-17T19:05:18.562Z,14.10
2017-10-17T19:07:46.105Z,14.10
2017-10-17T19:10:13.669Z,14.10
2017-10-17T19:12:41.204Z,14.10
2017-10-17T19:15:09.537Z,13.80
2017-10-17T19:17:37.073Z,13.80
2017-10-17T19:20:04.631Z,13.70
2017-10-17T19:22:32.501Z,13.60
2017-10-17T19:25:00.110Z,13.60
2017-10-17T19:27:27.687Z,13.50
2017-10-17T19:29:56.008Z,13.50
2017-10-17T19:32:24.789Z,13.50
2017-10-17T19:34:52.580Z,13.50
2017-10-17T19:37:22.606Z,13.50
2017-10-17T19:39:51.563Z,13.30
2017-10-17T19:42:19.911Z,13.30
2017-10-17T19:44:47.612Z,13.20
2017-10-17T19:47:15.143Z,13.10
2017-10-17T19:49:42.698Z,13.00
2017-10-17T19:52:10.241Z,12.90
2017-10-17T19:54:38.574Z,12.90
2017-10-17T19:57:06.296Z,12.80
2017-10-17T19:59:33.983Z,13.00
2017-10-17T20:02:01.558Z,12.90
2017-10-17T20:04:29.146Z,13.10
2017-10-17T20:06:56.691Z,13.00
2017-10-17T20:09:24.307Z,13.00
2017-10-17T20:11:51.851Z,13.10
2017-10-17T20:14:20.313Z,13.20
2017-10-17T20:16:47.968Z,13.20
2017-10-17T20:19:15.535Z,13.30
2017-10-17T20:21:43.076Z,13.30
2017-10-17T20:24:11.404Z,13.30
2017-10-17T20:26:38.952Z,13.30
2017-10-17T20:29:07.291Z,13.20
2017-10-17T20:31:34.992Z,13.20
2017-10-17T20:34:03.319Z,13.10
2017-10-17T20:36:30.871Z,13.00
2017-10-17T20:38:58.407Z,13.00
2017-10-17T20:41:25.970Z,12.90
2017-10-17T20:43:53.528Z,12.90
2017-10-17T20:46:21.090Z,12.90
2017-10-17T20:48:48.627Z,12.90
2017-10-17T20:51:16.955Z,12.80
2017-10-17T20:53:44.487Z,12.80
2017-10-17T20:56:12.043Z,12.90
2017-10-17T20:58:39.579Z,13.00
2017-10-17T21:01:07.908Z,12.80
2017-10-17T21:03:35.455Z,12.80
2017-10-17T21:06:03.023Z,12.80
2017-10-17T21:08:30.560Z,12.70
2017-10-17T21:10:58.127Z,12.60
2017-10-17T21:13:25.674Z,12.40
2017-10-17T21:15:53.239Z,12.50
2017-10-17T21:18:20.770Z,12.30
2017-10-17T21:20:48.338Z,12.20
2017-10-17T21:23:16.644Z,11.90
2017-10-17T21:25:44.207Z,11.90
2017-10-17T21:28:11.744Z,11.90
2017-10-17T21:30:39.303Z,11.80
2017-10-17T21:33:07.600Z,11.60
2017-10-17T21:35:35.165Z,11.60
2017-10-17T21:38:02.699Z,11.50
2017-10-17T21:40:31.030Z,11.30
2017-10-17T21:42:59.620Z,11.20
2017-10-17T21:45:27.179Z,11.20
2017-10-17T21:47:54.715Z,11.40
2017-10-17T21:50:22.279Z,11.60
2017-10-17T21:52:49.816Z,11.90
2017-10-17T21:55:17.375Z,12.00
2017-10-17T21:57:44.910Z,12.00
2017-10-17T22:00:13.451Z,12.20
2017-10-17T22:02:40.995Z,12.20
2017-10-17T22:05:08.562Z,12.20
2017-10-17T22:07:36.099Z,12.00
2017-10-17T22:10:03.659Z,11.70
2017-10-17T22:12:31.384Z,11.50
2017-10-17T22:14:58.948Z,11.40
2017-10-17T22:17:26.571Z,11.20
2017-10-17T22:19:54.130Z,11.10
2017-10-17T22:22:21.671Z,11.00
2017-10-17T22:24:49.223Z,11.00
2017-10-17T22:27:16.770Z,10.90
2017-10-17T22:29:45.091Z,10.80
2017-10-17T22:52:10.501Z,10.50
2017-10-17T22:54:38.066Z,10.60
2017-10-17T22:57:09.408Z,10.60
2017-10-17T22:59:36.944Z,10.60
2017-10-17T23:02:04.508Z,10.60
2017-10-17T23:04:32.819Z,10.70
2017-10-17T23:07:00.379Z,10.70
2017-10-17T23:09:27.919Z,10.60
2017-10-17T23:11:55.482Z,10.60
2017-10-17T23:14:23.022Z,10.50
2017-10-17T23:17:14.237Z,10.40
2017-10-17T23:19:53.564Z,10.40
2017-10-17T23:22:39.863Z,10.30
2017-10-17T23:25:07.423Z,10.30
2017-10-17T23:27:34.964Z,10.30
2017-10-17T23:30:02.526Z,10.30
2017-10-17T23:32:30.062Z,10.30
2017-10-17T23:34:57.620Z,10.30
2017-10-17T23:37:25.168Z,10.30
2017-10-17T23:39:52.711Z,10.30
2017-10-17T23:42:20.271Z,10.40
2017-10-17T23:44:47.809Z,10.50
2017-10-17T23:47:16.139Z,10.40
2017-10-17T23:49:43.674Z,10.30
2017-10-17T23:52:15.851Z,10.30
2017-10-17T23:54:43.393Z,10.40
2017-10-17T23:57:11.715Z,10.10
2017-10-17T23:59:39.252Z,10.10
